createdAt,value
2022-09-30T00:03:19.213Z,100
2022-09-30T00:09:19.335Z,100
2022-09-30T00:15:19.099Z,100
2022-09-30T00:21:19.162Z,100
2022-09-30T00:27:19.090Z,100
2022-09-30T00:33:19.120Z,100
2022-09-30T00:39:19.301Z,100
2022-09-30T00:45:19.109Z,100
2022-09-30T00:51:19.092Z,100
2022-09-30T00:57:19.114Z,100
2022-09-30T01:03:19.097Z,100
2022-09-30T01:09:19.228Z,100
2022-09-30T01:15:19.122Z,100
2022-09-30T01:21:19.095Z,100
2022-09-30T01:27:19.124Z,100
2022-09-30T01:33:19.141Z,100
2022-09-30T01:39:19.075Z,100
2022-09-30T01:45:19.097Z,100
2022-09-30T01:51:19.092Z,100
2022-09-30T01:57:19.094Z,100
2022-09-30T02:03:19.075Z,100
2022-09-30T02:09:19.395Z,100
2022-09-30T02:15:19.066Z,100
2022-09-30T02:21:19.159Z,100
2022-09-30T02:27:19.095Z,100
2022-09-30T02:33:19.117Z,100
2022-09-30T02:39:19.086Z,100
2022-09-30T02:45:19.133Z,100
2022-09-30T02:51:19.087Z,100
2022-09-30T02:57:19.130Z,100
2022-09-30T03:03:19.171Z,100
2022-09-30T03:09:19.314Z,100
2022-09-30T03:15:19.124Z,100
2022-09-30T03:21:19.156Z,100
2022-09-30T03:27:19.154Z,100
2022-09-30T03:33:19.118Z,100
2022-09-30T03:39:19.252Z,100
2022-09-30T03:45:19.134Z,100
2022-09-30T03:51:19.168Z,100
2022-09-30T03:57:19.158Z,100
2022-09-30T04:03:19.202Z,100
2022-09-30T04:09:19.197Z,100
2022-09-30T04:15:19.157Z,100
2022-09-30T04:21:19.124Z,100
2022-09-30T04:27:19.114Z,100
2022-09-30T04:33:19.171Z,100
2022-09-30T04:39:19.133Z,100
2022-09-30T04:45:19.112Z,100
2022-09-30T04:51:19.156Z,100
2022-09-30T04:57:19.106Z,100
2022-09-30T05:03:19.148Z,100
2022-09-30T05:09:19.253Z,100
2022-09-30T05:15:19.131Z,100
2022-09-30T05:21:19.149Z,100
2022-09-30T05:27:19.152Z,100
2022-09-30T05:33:19.128Z,100
2022-09-30T05:39:19.111Z,100
2022-09-30T05:45:19.224Z,100
2022-09-30T05:51:19.132Z,100
2022-09-30T05:57:19.116Z,100
2022-09-30T06:03:19.157Z,100
2022-09-30T06:09:19.204Z,100
2022-09-30T06:15:19.120Z,100
2022-09-30T06:21:19.120Z,100
2022-09-30T06:27:19.116Z,100
2022-09-30T06:33:19.106Z,85.6
2022-09-30T06:39:19.158Z,74.3
2022-09-30T06:45:29.716Z,68.1
2022-09-30T06:51:19.118Z,61.9
2022-09-30T06:57:19.141Z,59.9
2022-09-30T07:03:19.138Z,58.3
2022-09-30T07:09:19.257Z,57
2022-09-30T07:15:19.175Z,54
2022-09-30T07:21:19.110Z,53.6
2022-09-30T07:27:19.128Z,53.8
2022-09-30T07:33:19.164Z,51.6
2022-09-30T07:39:19.145Z,49.4
2022-09-30T07:45:19.141Z,49.5
2022-09-30T07:51:19.163Z,48.2
2022-09-30T07:57:19.123Z,48.1
2022-09-30T08:03:19.134Z,47.5
2022-09-30T08:09:19.258Z,44.6
2022-09-30T08:15:19.142Z,41.3
2022-09-30T08:21:19.123Z,41.9
2022-09-30T08:27:19.296Z,42.3
2022-09-30T08:33:19.140Z,37.7
2022-09-30T08:39:19.136Z,38
2022-09-30T08:45:19.190Z,37.2
2022-09-30T08:51:19.153Z,39.4
2022-09-30T08:57:19.155Z,41.3
2022-09-30T09:03:19.160Z,39.3
2022-09-30T09:09:19.244Z,41
2022-09-30T09:15:19.188Z,41.1
2022-09-30T09:21:19.209Z,35.9
2022-09-30T09:27:19.276Z,41.1
2022-09-30T09:33:19.157Z,36.6
2022-09-30T09:39:19.298Z,34.9
2022-09-30T09:45:19.148Z,36.8
2022-09-30T09:51:19.174Z,37
2022-09-30T09:57:19.198Z,36.5
2022-09-30T10:03:19.156Z,36.5
2022-09-30T10:09:19.240Z,36.8
2022-09-30T10:15:19.190Z,36.7
2022-09-30T10:21:19.198Z,38.4
2022-09-30T10:27:19.223Z,35.8
2022-09-30T10:33:19.181Z,37.1
2022-09-30T10:39:19.192Z,35.5
2022-09-30T10:45:19.222Z,35.5
2022-09-30T10:51:19.227Z,31.9
2022-09-30T10:57:19.193Z,36.3
2022-09-30T11:03:19.270Z,34.8
2022-09-30T11:09:19.216Z,43.3
2022-09-30T11:15:19.207Z,43.5
2022-09-30T11:21:19.183Z,44.3
2022-09-30T11:27:19.207Z,43.6
2022-09-30T11:33:19.226Z,40.6
2022-09-30T11:39:19.222Z,44.5
2022-09-30T11:45:19.205Z,41.1
2022-09-30T11:51:19.199Z,39.1
2022-09-30T11:57:19.207Z,38.8
2022-09-30T12:03:19.279Z,40
2022-09-30T12:09:19.224Z,36.8
2022-09-30T12:15:19.191Z,43.4
2022-09-30T12:21:19.239Z,41
2022-09-30T12:27:19.300Z,42.2
2022-09-30T12:33:19.204Z,44
2022-09-30T12:39:19.209Z,44.7
2022-09-30T12:45:19.231Z,45.9
2022-09-30T12:51:19.218Z,45.9
2022-09-30T12:57:19.219Z,46.3
2022-09-30T13:03:19.237Z,45.2
2022-09-30T13:09:19.215Z,43.5
2022-09-30T13:15:19.241Z,45.7
2022-09-30T13:21:19.218Z,46.1
2022-09-30T13:27:19.238Z,44.3
2022-09-30T13:33:19.253Z,43.1
2022-09-30T13:39:19.224Z,43.8
2022-09-30T13:45:19.221Z,45.4
2022-09-30T13:51:19.357Z,47.3
2022-09-30T13:57:19.232Z,46.3
2022-09-30T14:03:19.279Z,46.2
2022-09-30T14:09:19.284Z,46.1
2022-09-30T14:15:19.198Z,46.2
2022-09-30T14:21:19.241Z,44.5
2022-09-30T14:27:19.256Z,43.7
2022-09-30T14:33:19.201Z,46.4
2022-09-30T14:39:19.222Z,45.3
2022-09-30T14:45:19.250Z,47.2
2022-09-30T14:51:23.528Z,46.6
2022-09-30T14:57:19.229Z,45.1
2022-09-30T15:03:19.258Z,48.2
2022-09-30T15:09:19.221Z,48.1
2022-09-30T15:15:19.235Z,47
2022-09-30T15:21:19.264Z,45.9
2022-09-30T15:27:19.242Z,48.2
2022-09-30T15:33:19.207Z,48.8
2022-09-30T15:39:19.262Z,48.1
2022-09-30T15:45:19.209Z,50
2022-09-30T15:51:19.246Z,50.5
2022-09-30T15:57:19.252Z,50.1
2022-09-30T16:03:19.304Z,49.8
2022-09-30T16:09:19.259Z,50.6
2022-09-30T16:15:19.359Z,50.7
2022-09-30T16:21:19.231Z,50
2022-09-30T16:27:19.244Z,52
2022-09-30T16:33:19.274Z,52.6
2022-09-30T16:39:19.250Z,51.9
2022-09-30T16:45:19.248Z,52.1
2022-09-30T16:51:19.285Z,52.2
2022-09-30T16:57:19.245Z,51.8
2022-09-30T17:03:19.252Z,52
2022-09-30T17:09:19.239Z,53.1
2022-09-30T17:15:19.251Z,53.4
2022-09-30T17:21:19.378Z,54.3
2022-09-30T17:27:19.269Z,54.1
2022-09-30T17:33:19.254Z,55.3
2022-09-30T17:39:19.242Z,56.4
2022-09-30T17:45:19.271Z,57.4
2022-09-30T17:51:19.278Z,57.7
2022-09-30T17:57:19.254Z,58.6
2022-09-30T18:03:19.261Z,58
2022-09-30T18:09:19.230Z,59.5
2022-09-30T18:15:19.225Z,58.7
2022-09-30T18:21:19.294Z,58.6
2022-09-30T18:27:19.251Z,59.7
2022-09-30T18:33:19.237Z,59.4
2022-09-30T18:39:19.287Z,59.7
2022-09-30T18:45:19.265Z,60
2022-09-30T18:51:19.294Z,60.5
2022-09-30T18:57:19.280Z,61.9
2022-09-30T19:03:19.259Z,62
2022-09-30T19:09:19.281Z,62.1
2022-09-30T19:15:19.325Z,63.2
2022-09-30T19:21:19.255Z,63
2022-09-30T19:27:19.261Z,63.9
2022-09-30T19:33:19.257Z,64.4
2022-09-30T19:39:19.262Z,64.8
2022-09-30T19:45:22.716Z,66.2
2022-09-30T19:51:19.271Z,68.1
2022-09-30T19:57:19.242Z,69
2022-09-30T20:03:19.239Z,69.3
2022-09-30T20:09:19.310Z,70.4
2022-09-30T20:15:19.256Z,71.2
2022-09-30T20:21:19.248Z,71.1
2022-09-30T20:27:19.263Z,71.8
2022-09-30T20:33:19.269Z,71.7
2022-09-30T20:39:19.247Z,72.3
2022-09-30T20:45:19.266Z,72
2022-09-30T20:51:19.263Z,72.4
2022-09-30T20:57:19.234Z,72.6
2022-09-30T21:03:19.259Z,72.9
2022-09-30T21:09:19.232Z,73.9
2022-09-30T21:15:19.232Z,73.8
2022-09-30T21:21:19.267Z,74
2022-09-30T21:27:19.288Z,75
2022-09-30T21:33:19.252Z,74.6
2022-09-30T21:39:19.271Z,74.3
2022-09-30T21:45:19.249Z,74.1
2022-09-30T21:51:19.244Z,74.6
2022-09-30T21:57:19.270Z,74.8
2022-09-30T22:03:19.268Z,74.3
2022-09-30T22:09:19.242Z,74.5
2022-09-30T22:15:19.274Z,74.3
2022-09-30T22:21:19.248Z,75
2022-09-30T22:27:19.245Z,77
2022-09-30T22:33:19.270Z,76.7
2022-09-30T22:39:19.238Z,77.6
2022-09-30T22:45:19.257Z,76
2022-09-30T22:51:19.282Z,76.5
2022-09-30T22:57:19.244Z,77.1
2022-09-30T23:03:19.322Z,78.3
2022-09-30T23:09:19.268Z,78.8
2022-09-30T23:15:19.232Z,79.3
2022-09-30T23:21:19.258Z,80.4
2022-09-30T23:27:19.271Z,80.4
2022-09-30T23:33:19.244Z,81.9
2022-09-30T23:39:19.261Z,81.9
2022-09-30T23:45:19.277Z,82.4
2022-09-30T23:51:19.257Z,83
2022-09-30T23:57:19.271Z,83.6
